sensor_id;sensor_type;location;lat;lon;timestamp;temperature;humidity
10472;DHT22;5283;48.876;8.962;2023-08-08T00:02:09;9.70;99.90
10472;DHT22;5283;48.876;8.962;2023-08-08T00:04:42;9.70;99.90
10472;DHT22;5283;48.876;8.962;2023-08-08T00:07:09;9.80;99.90
10472;DHT22;5283;48.876;8.962;2023-08-08T00:09:39;9.80;99.90
10472;DHT22;5283;48.876;8.962;2023-08-08T00:12:09;9.90;99.90
10472;DHT22;5283;48.876;8.962;2023-08-08T00:14:38;10.00;99.90
10472;DHT22;5283;48.876;8.962;2023-08-08T00:17:08;10.10;99.90
10472;DHT22;5283;48.876;8.962;2023-08-08T00:19:38;10.20;99.90
10472;DHT22;5283;48.876;8.962;2023-08-08T00:22:12;10.20;99.90
10472;DHT22;5283;48.876;8.962;2023-08-08T00:24:42;10.30;99.90
10472;DHT22;5283;48.876;8.962;2023-08-08T00:27:12;10.40;99.90
10472;DHT22;5283;48.876;8.962;2023-08-08T00:29:42;10.40;99.90
10472;DHT22;5283;48.876;8.962;2023-08-08T00:32:09;10.50;99.90
10472;DHT22;5283;48.876;8.962;2023-08-08T00:34:38;10.50;99.90
10472;DHT22;5283;48.876;8.962;2023-08-08T00:37:11;10.50;99.90
10472;DHT22;5283;48.876;8.962;2023-08-08T00:39:43;10.50;99.90
10472;DHT22;5283;48.876;8.962;2023-08-08T00:42:16;10.40;99.90
10472;DHT22;5283;48.876;8.962;2023-08-08T00:44:46;10.40;99.90
10472;DHT22;5283;48.876;8.962;2023-08-08T00:47:13;10.40;99.90
10472;DHT22;5283;48.876;8.962;2023-08-08T00:49:40;10.30;99.90
10472;DHT22;5283;48.876;8.962;2023-08-08T00:52:15;10.30;99.90
10472;DHT22;5283;48.876;8.962;2023-08-08T00:54:45;10.40;99.90
10472;DHT22;5283;48.876;8.962;2023-08-08T00:57:15;10.40;99.90
10472;DHT22;5283;48.876;8.962;2023-08-08T00:59:44;10.40;99.90
10472;DHT22;5283;48.876;8.962;2023-08-08T01:02:11;10.50;99.90
10472;DHT22;5283;48.876;8.962;2023-08-08T01:04:41;10.50;99.90
10472;DHT22;5283;48.876;8.962;2023-08-08T01:07:19;10.50;99.90
10472;DHT22;5283;48.876;8.962;2023-08-08T01:10:00;10.50;99.90
10472;DHT22;5283;48.876;8.962;2023-08-08T01:12:46;10.50;99.90
10472;DHT22;5283;48.876;8.962;2023-08-08T01:15:17;10.60;99.90
10472;DHT22;5283;48.876;8.962;2023-08-08T01:17:51;10.60;99.90
10472;DHT22;5283;48.876;8.962;2023-08-08T01:20:20;10.70;99.90
10472;DHT22;5283;48.876;8.962;2023-08-08T01:25:38;10.80;99.90
10472;DHT22;5283;48.876;8.962;2023-08-08T01:28:15;10.90;99.90
10472;DHT22;5283;48.876;8.962;2023-08-08T01:30:45;11.00;99.90
10472;DHT22;5283;48.876;8.962;2023-08-08T01:33:17;11.10;99.90
10472;DHT22;5283;48.876;8.962;2023-08-08T01:35:50;11.20;99.90
10472;DHT22;5283;48.876;8.962;2023-08-08T01:38:36;11.20;99.90
10472;DHT22;5283;48.876;8.962;2023-08-08T01:41:08;11.20;99.90
10472;DHT22;5283;48.876;8.962;2023-08-08T01:43:39;11.30;99.90
10472;DHT22;5283;48.876;8.962;2023-08-08T01:46:07;11.30;99.90
10472;DHT22;5283;48.876;8.962;2023-08-08T01:48:35;11.30;99.90
10472;DHT22;5283;48.876;8.962;2023-08-08T01:51:02;11.40;99.90
10472;DHT22;5283;48.876;8.962;2023-08-08T01:53:29;11.40;99.90
10472;DHT22;5283;48.876;8.962;2023-08-08T01:55:59;11.40;99.90
10472;DHT22;5283;48.876;8.962;2023-08-08T01:58:32;11.30;99.90
10472;DHT22;5283;48.876;8.962;2023-08-08T02:01:03;11.20;99.90
10472;DHT22;5283;48.876;8.962;2023-08-08T02:03:30;11.10;99.90
10472;DHT22;5283;48.876;8.962;2023-08-08T02:06:05;11.00;99.90
10472;DHT22;5283;48.876;8.962;2023-08-08T02:08:35;11.00;99.90
10472;DHT22;5283;48.876;8.962;2023-08-08T02:11:07;11.00;99.90
10472;DHT22;5283;48.876;8.962;2023-08-08T02:13:36;10.90;99.90
10472;DHT22;5283;48.876;8.962;2023-08-08T02:16:06;10.80;99.90
10472;DHT22;5283;48.876;8.962;2023-08-08T02:18:33;10.70;99.90
10472;DHT22;5283;48.876;8.962;2023-08-08T02:21:03;10.60;99.90
10472;DHT22;5283;48.876;8.962;2023-08-08T02:23:37;10.50;99.90
10472;DHT22;5283;48.876;8.962;2023-08-08T02:26:07;10.40;99.90
10472;DHT22;5283;48.876;8.962;2023-08-08T02:28:42;10.30;99.90
10472;DHT22;5283;48.876;8.962;2023-08-08T02:31:14;10.30;99.90
10472;DHT22;5283;48.876;8.962;2023-08-08T02:33:50;10.20;99.90
10472;DHT22;5283;48.876;8.962;2023-08-08T02:36:23;10.20;99.90
10472;DHT22;5283;48.876;8.962;2023-08-08T02:38:53;10.20;99.90
10472;DHT22;5283;48.876;8.962;2023-08-08T02:41:23;10.50;99.90
10472;DHT22;5283;48.876;8.962;2023-08-08T02:43:50;10.60;99.90
10472;DHT22;5283;48.876;8.962;2023-08-08T02:46:20;10.70;99.90
10472;DHT22;5283;48.876;8.962;2023-08-08T02:48:55;10.70;99.90
10472;DHT22;5283;48.876;8.962;2023-08-08T02:51:27;10.60;99.90
10472;DHT22;5283;48.876;8.962;2023-08-08T02:53:54;10.40;99.90
10472;DHT22;5283;48.876;8.962;2023-08-08T02:56:23;10.30;99.90
10472;DHT22;5283;48.876;8.962;2023-08-08T02:58:53;10.20;99.90
10472;DHT22;5283;48.876;8.962;2023-08-08T03:01:20;10.20;99.90
10472;DHT22;5283;48.876;8.962;2023-08-08T03:03:51;10.10;99.90
10472;DHT22;5283;48.876;8.962;2023-08-08T03:06:22;10.10;99.90
10472;DHT22;5283;48.876;8.962;2023-08-08T03:08:55;10.10;99.90
10472;DHT22;5283;48.876;8.962;2023-08-08T03:11:25;10.10;99.90
10472;DHT22;5283;48.876;8.962;2023-08-08T03:13:54;10.10;99.90
10472;DHT22;5283;48.876;8.962;2023-08-08T03:16:24;10.10;99.90
10472;DHT22;5283;48.876;8.962;2023-08-08T03:18:56;10.00;99.90
10472;DHT22;5283;48.876;8.962;2023-08-08T03:21:23;10.00;99.90
10472;DHT22;5283;48.876;8.962;2023-08-08T03:23:53;10.00;99.90
10472;DHT22;5283;48.876;8.962;2023-08-08T03:26:21;10.00;99.90
10472;DHT22;5283;48.876;8.962;2023-08-08T03:28:48;10.00;99.90
10472;DHT22;5283;48.876;8.962;2023-08-08T03:31:17;10.10;99.90
10472;DHT22;5283;48.876;8.962;2023-08-08T03:33:44;10.20;99.90
10472;DHT22;5283;48.876;8.962;2023-08-08T03:36:11;10.40;99.90
10472;DHT22;5283;48.876;8.962;2023-08-08T03:38:38;10.50;99.90
10472;DHT22;5283;48.876;8.962;2023-08-08T03:41:05;10.60;99.90
10472;DHT22;5283;48.876;8.962;2023-08-08T03:43:35;10.70;99.90
10472;DHT22;5283;48.876;8.962;2023-08-08T03:46:05;10.80;99.90
10472;DHT22;5283;48.876;8.962;2023-08-08T03:48:36;10.90;99.90
10472;DHT22;5283;48.876;8.962;2023-08-08T03:51:03;10.90;99.90
10472;DHT22;5283;48.876;8.962;2023-08-08T03:53:30;10.90;99.90
10472;DHT22;5283;48.876;8.962;2023-08-08T03:55:57;11.00;99.90
10472;DHT22;5283;48.876;8.962;2023-08-08T03:58:26;11.10;99.90
10472;DHT22;5283;48.876;8.962;2023-08-08T04:00:54;11.10;99.90
10472;DHT22;5283;48.876;8.962;2023-08-08T04:03:21;11.00;99.90
10472;DHT22;5283;48.876;8.962;2023-08-08T04:05:50;11.00;99.90
10472;DHT22;5283;48.876;8.962;2023-08-08T04:08:17;10.90;99.90
10472;DHT22;5283;48.876;8.962;2023-08-08T04:10:48;10.80;99.90
10472;DHT22;5283;48.876;8.962;2023-08-08T04:13:18;10.70;99.90
10472;DHT22;5283;48.876;8.962;2023-08-08T04:15:45;10.70;99.90
10472;DHT22;5283;48.876;8.962;2023-08-08T04:18:15;10.70;99.90
10472;DHT22;5283;48.876;8.962;2023-08-08T04:20:42;10.70;99.90
10472;DHT22;5283;48.876;8.962;2023-08-08T04:23:13;10.80;99.90
10472;DHT22;5283;48.876;8.962;2023-08-08T04:25:40;10.90;99.90
10472;DHT22;5283;48.876;8.962;2023-08-08T04:28:10;10.90;99.90
10472;DHT22;5283;48.876;8.962;2023-08-08T04:30:36;10.90;99.90
10472;DHT22;5283;48.876;8.962;2023-08-08T04:33:06;10.80;99.90
10472;DHT22;5283;48.876;8.962;2023-08-08T04:35:33;10.80;99.90
10472;DHT22;5283;48.876;8.962;2023-08-08T04:38:03;10.80;99.90
10472;DHT22;5283;48.876;8.962;2023-08-08T04:40:30;10.80;99.90
10472;DHT22;5283;48.876;8.962;2023-08-08T04:42:57;10.80;99.90
10472;DHT22;5283;48.876;8.962;2023-08-08T04:45:24;10.80;99.90
10472;DHT22;5283;48.876;8.962;2023-08-08T04:47:55;10.80;99.90
10472;DHT22;5283;48.876;8.962;2023-08-08T04:50:23;10.80;99.90
10472;DHT22;5283;48.876;8.962;2023-08-08T04:52:50;10.90;99.90
10472;DHT22;5283;48.876;8.962;2023-08-08T04:55:17;11.00;99.90
10472;DHT22;5283;48.876;8.962;2023-08-08T04:57:47;11.40;99.90
10472;DHT22;5283;48.876;8.962;2023-08-08T05:00:14;12.10;99.90
10472;DHT22;5283;48.876;8.962;2023-08-08T05:02:41;12.50;99.90
10472;DHT22;5283;48.876;8.962;2023-08-08T05:05:08;13.20;99.90
10472;DHT22;5283;48.876;8.962;2023-08-08T05:07:36;14.00;99.90
10472;DHT22;5283;48.876;8.962;2023-08-08T05:10:07;14.40;99.90
10472;DHT22;5283;48.876;8.962;2023-08-08T05:12:39;14.80;99.90
10472;DHT22;5283;48.876;8.962;2023-08-08T05:15:09;15.40;99.90
10472;DHT22;5283;48.876;8.962;2023-08-08T05:17:38;15.50;99.90
10472;DHT22;5283;48.876;8.962;2023-08-08T05:20:10;15.50;99.90
10472;DHT22;5283;48.876;8.962;2023-08-08T05:22:38;15.40;99.90
10472;DHT22;5283;48.876;8.962;2023-08-08T05:25:06;16.10;99.90
10472;DHT22;5283;48.876;8.962;2023-08-08T05:27:36;16.80;99.90
10472;DHT22;5283;48.876;8.962;2023-08-08T05:30:10;17.70;99.90
10472;DHT22;5283;48.876;8.962;2023-08-08T05:32:42;18.40;99.90
10472;DHT22;5283;48.876;8.962;2023-08-08T05:35:09;19.10;99.90
10472;DHT22;5283;48.876;8.962;2023-08-08T05:37:38;19.60;99.90
10472;DHT22;5283;48.876;8.962;2023-08-08T05:40:08;20.00;99.90
10472;DHT22;5283;48.876;8.962;2023-08-08T05:42:43;20.50;99.90
10472;DHT22;5283;48.876;8.962;2023-08-08T05:45:13;20.70;99.90
10472;DHT22;5283;48.876;8.962;2023-08-08T05:47:42;20.90;99.90
10472;DHT22;5283;48.876;8.962;2023-08-08T05:50:18;21.20;99.90
10472;DHT22;5283;48.876;8.962;2023-08-08T05:52:50;21.40;99.90
10472;DHT22;5283;48.876;8.962;2023-08-08T05:55:17;21.20;99.90
10472;DHT22;5283;48.876;8.962;2023-08-08T05:57:44;21.30;99.90
10472;DHT22;5283;48.876;8.962;2023-08-08T06:00:11;21.80;99.90
10472;DHT22;5283;48.876;8.962;2023-08-08T06:02:38;22.10;99.90
10472;DHT22;5283;48.876;8.962;2023-08-08T06:05:05;22.10;99.90
10472;DHT22;5283;48.876;8.962;2023-08-08T06:07:32;22.40;99.90
10472;DHT22;5283;48.876;8.962;2023-08-08T06:10:02;22.00;99.90
10472;DHT22;5283;48.876;8.962;2023-08-08T06:12:29;21.30;99.90
10472;DHT22;5283;48.876;8.962;2023-08-08T06:14:58;21.30;99.90
10472;DHT22;5283;48.876;8.962;2023-08-08T06:17:25;21.00;99.90
10472;DHT22;5283;48.876;8.962;2023-08-08T06:19:52;21.20;99.90
10472;DHT22;5283;48.876;8.962;2023-08-08T06:22:21;20.10;99.90
10472;DHT22;5283;48.876;8.962;2023-08-08T06:24:49;20.30;99.90
10472;DHT22;5283;48.876;8.962;2023-08-08T06:27:17;20.90;99.90
10472;DHT22;5283;48.876;8.962;2023-08-08T06:29:44;21.00;99.90
10472;DHT22;5283;48.876;8.962;2023-08-08T06:32:10;20.70;99.90
10472;DHT22;5283;48.876;8.962;2023-08-08T06:34:43;20.70;99.90
10472;DHT22;5283;48.876;8.962;2023-08-08T06:37:13;21.30;99.90
10472;DHT22;5283;48.876;8.962;2023-08-08T06:39:40;20.70;99.90
10472;DHT22;5283;48.876;8.962;2023-08-08T06:42:11;20.60;99.90
10472;DHT22;5283;48.876;8.962;2023-08-08T06:44:42;20.60;99.90
10472;DHT22;5283;48.876;8.962;2023-08-08T06:47:10;20.80;99.90
10472;DHT22;5283;48.876;8.962;2023-08-08T06:49:38;20.90;99.90
10472;DHT22;5283;48.876;8.962;2023-08-08T06:52:05;20.60;99.90
10472;DHT22;5283;48.876;8.962;2023-08-08T06:54:33;20.40;99.90
10472;DHT22;5283;48.876;8.962;2023-08-08T06:57:02;20.10;99.90
10472;DHT22;5283;48.876;8.962;2023-08-08T06:59:31;19.90;99.90
10472;DHT22;5283;48.876;8.962;2023-08-08T07:01:58;19.70;99.90
10472;DHT22;5283;48.876;8.962;2023-08-08T07:04:25;19.60;99.90
10472;DHT22;5283;48.876;8.962;2023-08-08T07:06:55;19.20;99.90
10472;DHT22;5283;48.876;8.962;2023-08-08T07:09:22;19.00;99.90
10472;DHT22;5283;48.876;8.962;2023-08-08T07:11:53;19.30;99.90
10472;DHT22;5283;48.876;8.962;2023-08-08T07:14:19;19.20;99.90
10472;DHT22;5283;48.876;8.962;2023-08-08T07:16:48;19.40;99.90
10472;DHT22;5283;48.876;8.962;2023-08-08T07:19:15;19.60;99.90
10472;DHT22;5283;48.876;8.962;2023-08-08T07:21:42;20.00;99.90
10472;DHT22;5283;48.876;8.962;2023-08-08T07:24:09;20.60;99.90
10472;DHT22;5283;48.876;8.962;2023-08-08T07:26:36;21.00;99.90
10472;DHT22;5283;48.876;8.962;2023-08-08T07:29:03;20.50;99.90
10472;DHT22;5283;48.876;8.962;2023-08-08T07:31:32;19.60;99.90
10472;DHT22;5283;48.876;8.962;2023-08-08T07:33:59;19.50;99.90
10472;DHT22;5283;48.876;8.962;2023-08-08T07:36:26;20.00;99.90
10472;DHT22;5283;48.876;8.962;2023-08-08T07:38:53;20.00;99.90
10472;DHT22;5283;48.876;8.962;2023-08-08T07:41:30;19.90;99.90
10472;DHT22;5283;48.876;8.962;2023-08-08T07:43:57;19.80;99.90
10472;DHT22;5283;48.876;8.962;2023-08-08T07:46:29;20.40;99.90
10472;DHT22;5283;48.876;8.962;2023-08-08T07:48:59;19.80;99.90
10472;DHT22;5283;48.876;8.962;2023-08-08T07:51:30;19.50;99.90
10472;DHT22;5283;48.876;8.962;2023-08-08T07:53:58;19.40;99.90
10472;DHT22;5283;48.876;8.962;2023-08-08T07:56:25;19.10;99.90
10472;DHT22;5283;48.876;8.962;2023-08-08T07:58:54;19.00;99.90
10472;DHT22;5283;48.876;8.962;2023-08-08T08:01:21;18.90;99.90
10472;DHT22;5283;48.876;8.962;2023-08-08T08:03:51;18.80;99.90
10472;DHT22;5283;48.876;8.962;2023-08-08T08:06:18;18.50;99.90
10472;DHT22;5283;48.876;8.962;2023-08-08T08:08:48;18.50;99.90
10472;DHT22;5283;48.876;8.962;2023-08-08T08:11:14;18.60;99.90
10472;DHT22;5283;48.876;8.962;2023-08-08T08:13:42;18.60;99.90
10472;DHT22;5283;48.876;8.962;2023-08-08T08:16:09;18.80;99.90
10472;DHT22;5283;48.876;8.962;2023-08-08T08:18:36;18.90;99.90
10472;DHT22;5283;48.876;8.962;2023-08-08T08:21:03;18.80;99.90
10472;DHT22;5283;48.876;8.962;2023-08-08T08:23:33;18.60;99.90
10472;DHT22;5283;48.876;8.962;2023-08-08T08:26:00;18.90;99.90
10472;DHT22;5283;48.876;8.962;2023-08-08T08:28:27;19.20;99.90
10472;DHT22;5283;48.876;8.962;2023-08-08T08:30:56;19.10;99.90
10472;DHT22;5283;48.876;8.962;2023-08-08T08:33:23;18.60;99.90
10472;DHT22;5283;48.876;8.962;2023-08-08T08:35:52;18.80;99.90
10472;DHT22;5283;48.876;8.962;2023-08-08T08:38:19;19.20;99.90
10472;DHT22;5283;48.876;8.962;2023-08-08T08:40:46;19.30;99.90
10472;DHT22;5283;48.876;8.962;2023-08-08T08:43:16;19.00;99.90
10472;DHT22;5283;48.876;8.962;2023-08-08T08:45:49;19.20;99.90
10472;DHT22;5283;48.876;8.962;2023-08-08T08:48:16;19.10;99.90
10472;DHT22;5283;48.876;8.962;2023-08-08T08:50:47;19.10;99.90
10472;DHT22;5283;48.876;8.962;2023-08-08T08:53:15;19.10;99.90
10472;DHT22;5283;48.876;8.962;2023-08-08T08:55:47;19.40;99.90
10472;DHT22;5283;48.876;8.962;2023-08-08T08:58:18;19.60;99.90
10472;DHT22;5283;48.876;8.962;2023-08-08T09:00:46;19.60;99.90
10472;DHT22;5283;48.876;8.962;2023-08-08T09:03:20;19.80;99.90
10472;DHT22;5283;48.876;8.962;2023-08-08T09:05:49;19.90;99.90
10472;DHT22;5283;48.876;8.962;2023-08-08T09:08:20;20.10;99.90
10472;DHT22;5283;48.876;8.962;2023-08-08T09:10:47;20.20;99.90
10472;DHT22;5283;48.876;8.962;2023-08-08T09:13:20;20.40;99.90
10472;DHT22;5283;48.876;8.962;2023-08-08T09:15:47;20.30;99.90
10472;DHT22;5283;48.876;8.962;2023-08-08T09:18:15;20.00;99.90
10472;DHT22;5283;48.876;8.962;2023-08-08T09:20:47;19.80;99.90
10472;DHT22;5283;48.876;8.962;2023-08-08T09:23:15;19.70;99.90
10472;DHT22;5283;48.876;8.962;2023-08-08T09:25:42;19.70;99.90
10472;DHT22;5283;48.876;8.962;2023-08-08T09:28:12;19.80;99.90
10472;DHT22;5283;48.876;8.962;2023-08-08T09:30:42;19.60;99.90
10472;DHT22;5283;48.876;8.962;2023-08-08T09:33:12;19.60;99.90
10472;DHT22;5283;48.876;8.962;2023-08-08T09:35:41;19.80;99.90
10472;DHT22;5283;48.876;8.962;2023-08-08T09:38:08;20.00;99.90
10472;DHT22;5283;48.876;8.962;2023-08-08T09:40:37;20.20;99.90
10472;DHT22;5283;48.876;8.962;2023-08-08T09:43:07;20.30;99.90
10472;DHT22;5283;48.876;8.962;2023-08-08T09:45:39;20.10;99.90
10472;DHT22;5283;48.876;8.962;2023-08-08T09:48:06;19.90;99.90
10472;DHT22;5283;48.876;8.962;2023-08-08T09:50:36;20.00;99.90
10472;DHT22;5283;48.876;8.962;2023-08-08T09:53:03;20.20;99.90
10472;DHT22;5283;48.876;8.962;2023-08-08T09:55:32;20.30;99.90
10472;DHT22;5283;48.876;8.962;2023-08-08T09:58:02;20.20;99.90
10472;DHT22;5283;48.876;8.962;2023-08-08T10:00:31;20.10;99.90
10472;DHT22;5283;48.876;8.962;2023-08-08T10:03:01;20.10;99.90
10472;DHT22;5283;48.876;8.962;2023-08-08T10:05:28;20.10;99.90
10472;DHT22;5283;48.876;8.962;2023-08-08T10:07:56;19.90;99.90
10472;DHT22;5283;48.876;8.962;2023-08-08T10:10:26;20.20;99.90
10472;DHT22;5283;48.876;8.962;2023-08-08T10:12:55;20.50;99.90
10472;DHT22;5283;48.876;8.962;2023-08-08T10:15:30;20.80;99.90
10472;DHT22;5283;48.876;8.962;2023-08-08T10:17:57;20.60;99.90
10472;DHT22;5283;48.876;8.962;2023-08-08T10:20:25;20.20;99.90
10472;DHT22;5283;48.876;8.962;2023-08-08T10:22:53;20.30;99.90
10472;DHT22;5283;48.876;8.962;2023-08-08T10:25:26;20.30;99.90
10472;DHT22;5283;48.876;8.962;2023-08-08T10:30:46;20.40;99.90
10472;DHT22;5283;48.876;8.962;2023-08-08T10:33:23;20.30;99.90
10472;DHT22;5283;48.876;8.962;2023-08-08T10:36:06;20.50;99.90
10472;DHT22;5283;48.876;8.962;2023-08-08T10:38:50;20.50;99.90
10472;DHT22;5283;48.876;8.962;2023-08-08T10:41:22;20.60;99.90
10472;DHT22;5283;48.876;8.962;2023-08-08T10:43:54;20.90;99.90
10472;DHT22;5283;48.876;8.962;2023-08-08T10:46:32;21.00;99.90
10472;DHT22;5283;48.876;8.962;2023-08-08T10:49:01;21.10;99.90
10472;DHT22;5283;48.876;8.962;2023-08-08T10:51:44;21.00;99.90
10472;DHT22;5283;48.876;8.962;2023-08-08T10:54:24;21.00;99.90
10472;DHT22;5283;48.876;8.962;2023-08-08T10:56:58;20.80;99.90
10472;DHT22;5283;48.876;8.962;2023-08-08T10:59:37;20.90;99.90
10472;DHT22;5283;48.876;8.962;2023-08-08T11:02:04;21.00;99.90
10472;DHT22;5283;48.876;8.962;2023-08-08T11:04:32;21.00;99.90
10472;DHT22;5283;48.876;8.962;2023-08-08T11:07:00;20.90;99.90
10472;DHT22;5283;48.876;8.962;2023-08-08T11:09:27;21.00;99.90
10472;DHT22;5283;48.876;8.962;2023-08-08T11:11:54;21.10;99.90
10472;DHT22;5283;48.876;8.962;2023-08-08T11:14:21;21.40;99.90
10472;DHT22;5283;48.876;8.962;2023-08-08T11:16:50;21.50;99.90
10472;DHT22;5283;48.876;8.962;2023-08-08T11:19:17;21.40;99.90
10472;DHT22;5283;48.876;8.962;2023-08-08T11:21:48;21.40;99.90
10472;DHT22;5283;48.876;8.962;2023-08-08T11:24:15;21.50;99.90
10472;DHT22;5283;48.876;8.962;2023-08-08T11:26:44;21.50;99.90
10472;DHT22;5283;48.876;8.962;2023-08-08T11:29:13;21.70;99.90
10472;DHT22;5283;48.876;8.962;2023-08-08T11:31:41;21.80;99.90
10472;DHT22;5283;48.876;8.962;2023-08-08T11:34:08;21.90;99.90
10472;DHT22;5283;48.876;8.962;2023-08-08T11:36:37;21.90;99.90
10472;DHT22;5283;48.876;8.962;2023-08-08T11:39:06;22.10;99.90
10472;DHT22;5283;48.876;8.962;2023-08-08T11:41:37;22.50;99.90
10472;DHT22;5283;48.876;8.962;2023-08-08T11:44:07;22.40;99.90
10472;DHT22;5283;48.876;8.962;2023-08-08T11:46:46;21.90;99.90
10472;DHT22;5283;48.876;8.962;2023-08-08T11:49:16;21.70;99.90
10472;DHT22;5283;48.876;8.962;2023-08-08T11:51:45;21.40;99.90
10472;DHT22;5283;48.876;8.962;2023-08-08T11:54:13;21.90;99.90
10472;DHT22;5283;48.876;8.962;2023-08-08T11:56:43;22.10;99.90
10472;DHT22;5283;48.876;8.962;2023-08-08T11:59:10;22.20;99.90
10472;DHT22;5283;48.876;8.962;2023-08-08T12:01:38;22.00;99.90
10472;DHT22;5283;48.876;8.962;2023-08-08T12:04:08;21.90;99.90
10472;DHT22;5283;48.876;8.962;2023-08-08T12:06:39;21.90;99.90
10472;DHT22;5283;48.876;8.962;2023-08-08T12:09:11;22.00;99.90
10472;DHT22;5283;48.876;8.962;2023-08-08T12:11:42;22.10;99.90
10472;DHT22;5283;48.876;8.962;2023-08-08T12:14:11;22.20;99.90
10472;DHT22;5283;48.876;8.962;2023-08-08T12:16:42;21.90;99.90
10472;DHT22;5283;48.876;8.962;2023-08-08T12:19:11;21.70;99.90
10472;DHT22;5283;48.876;8.962;2023-08-08T12:21:39;21.90;99.90
10472;DHT22;5283;48.876;8.962;2023-08-08T12:24:08;21.80;99.90
10472;DHT22;5283;48.876;8.962;2023-08-08T12:26:35;21.90;99.90
10472;DHT22;5283;48.876;8.962;2023-08-08T12:29:03;21.80;99.90
10472;DHT22;5283;48.876;8.962;2023-08-08T12:31:30;22.00;99.90
10472;DHT22;5283;48.876;8.962;2023-08-08T12:33:56;22.00;99.90
10472;DHT22;5283;48.876;8.962;2023-08-08T12:36:24;22.10;99.90
10472;DHT22;5283;48.876;8.962;2023-08-08T12:38:51;21.80;99.90
10472;DHT22;5283;48.876;8.962;2023-08-08T12:41:18;21.60;99.90
10472;DHT22;5283;48.876;8.962;2023-08-08T12:43:45;21.50;99.90
10472;DHT22;5283;48.876;8.962;2023-08-08T12:46:12;21.80;99.90
10472;DHT22;5283;48.876;8.962;2023-08-08T12:48:39;21.90;99.90
10472;DHT22;5283;48.876;8.962;2023-08-08T12:51:06;21.80;99.90
10472;DHT22;5283;48.876;8.962;2023-08-08T12:53:34;22.10;99.90
10472;DHT22;5283;48.876;8.962;2023-08-08T12:56:01;22.40;99.90
10472;DHT22;5283;48.876;8.962;2023-08-08T12:58:28;22.40;99.90
10472;DHT22;5283;48.876;8.962;2023-08-08T13:00:55;22.20;99.90
10472;DHT22;5283;48.876;8.962;2023-08-08T13:03:22;22.20;99.90
10472;DHT22;5283;48.876;8.962;2023-08-08T13:05:49;21.80;99.90
10472;DHT22;5283;48.876;8.962;2023-08-08T13:08:16;21.50;99.90
10472;DHT22;5283;48.876;8.962;2023-08-08T13:10:43;21.30;99.90
10472;DHT22;5283;48.876;8.962;2023-08-08T13:13:10;21.30;99.90
10472;DHT22;5283;48.876;8.962;2023-08-08T13:15:37;21.50;99.90
10472;DHT22;5283;48.876;8.962;2023-08-08T13:18:06;21.20;99.90
10472;DHT22;5283;48.876;8.962;2023-08-08T13:20:33;21.40;99.90
10472;DHT22;5283;48.876;8.962;2023-08-08T13:23:00;21.70;99.90
10472;DHT22;5283;48.876;8.962;2023-08-08T13:25:27;22.00;99.90
10472;DHT22;5283;48.876;8.962;2023-08-08T13:27:54;22.00;99.90
10472;DHT22;5283;48.876;8.962;2023-08-08T13:30:20;22.00;99.90
10472;DHT22;5283;48.876;8.962;2023-08-08T13:32:48;22.30;99.90
10472;DHT22;5283;48.876;8.962;2023-08-08T13:35:15;22.60;99.90
10472;DHT22;5283;48.876;8.962;2023-08-08T13:37:42;22.40;99.90
10472;DHT22;5283;48.876;8.962;2023-08-08T13:40:09;22.40;99.90
10472;DHT22;5283;48.876;8.962;2023-08-08T13:42:36;22.30;99.90
10472;DHT22;5283;48.876;8.962;2023-08-08T13:45:02;22.10;99.90
10472;DHT22;5283;48.876;8.962;2023-08-08T13:47:30;22.00;99.90
10472;DHT22;5283;48.876;8.962;2023-08-08T13:49:56;22.20;99.90
10472;DHT22;5283;48.876;8.962;2023-08-08T13:52:23;22.10;99.90
10472;DHT22;5283;48.876;8.962;2023-08-08T13:54:50;22.00;99.90
10472;DHT22;5283;48.876;8.962;2023-08-08T13:57:18;22.20;99.90
10472;DHT22;5283;48.876;8.962;2023-08-08T13:59:45;21.90;99.90
10472;DHT22;5283;48.876;8.962;2023-08-08T14:02:11;22.10;99.90
10472;DHT22;5283;48.876;8.962;2023-08-08T14:04:38;22.40;99.90
10472;DHT22;5283;48.876;8.962;2023-08-08T14:07:05;22.70;99.90
10472;DHT22;5283;48.876;8.962;2023-08-08T14:09:33;22.60;99.90
10472;DHT22;5283;48.876;8.962;2023-08-08T14:12:00;22.40;99.90
10472;DHT22;5283;48.876;8.962;2023-08-08T14:14:27;22.50;99.90
10472;DHT22;5283;48.876;8.962;2023-08-08T14:16:54;22.80;99.90
10472;DHT22;5283;48.876;8.962;2023-08-08T14:19:21;22.40;99.90
10472;DHT22;5283;48.876;8.962;2023-08-08T14:21:48;22.00;99.90
10472;DHT22;5283;48.876;8.962;2023-08-08T14:24:15;21.60;99.90
10472;DHT22;5283;48.876;8.962;2023-08-08T14:26:42;21.50;99.90
10472;DHT22;5283;48.876;8.962;2023-08-08T14:29:09;21.90;99.90
10472;DHT22;5283;48.876;8.962;2023-08-08T14:31:36;22.30;99.90
10472;DHT22;5283;48.876;8.962;2023-08-08T14:34:09;22.30;99.90
10472;DHT22;5283;48.876;8.962;2023-08-08T14:36:35;22.00;99.90
10472;DHT22;5283;48.876;8.962;2023-08-08T14:39:02;21.60;99.90
10472;DHT22;5283;48.876;8.962;2023-08-08T14:41:29;21.30;99.90
10472;DHT22;5283;48.876;8.962;2023-08-08T14:43:56;21.00;99.90
10472;DHT22;5283;48.876;8.962;2023-08-08T14:46:23;20.80;99.90
10472;DHT22;5283;48.876;8.962;2023-08-08T14:48:50;20.90;99.90
10472;DHT22;5283;48.876;8.962;2023-08-08T14:51:17;20.80;99.90
10472;DHT22;5283;48.876;8.962;2023-08-08T14:53:46;20.70;99.90
10472;DHT22;5283;48.876;8.962;2023-08-08T14:56:12;20.60;99.90
10472;DHT22;5283;48.876;8.962;2023-08-08T14:58:39;20.90;99.90
10472;DHT22;5283;48.876;8.962;2023-08-08T15:01:06;21.40;99.90
10472;DHT22;5283;48.876;8.962;2023-08-08T15:03:33;21.80;99.90
10472;DHT22;5283;48.876;8.962;2023-08-08T15:06:00;21.60;99.90
10472;DHT22;5283;48.876;8.962;2023-08-08T15:08:27;21.20;99.90
10472;DHT22;5283;48.876;8.962;2023-08-08T15:10:54;21.00;99.90
10472;DHT22;5283;48.876;8.962;2023-08-08T15:13:22;21.10;99.90
10472;DHT22;5283;48.876;8.962;2023-08-08T15:15:49;21.40;99.90
10472;DHT22;5283;48.876;8.962;2023-08-08T15:18:16;21.50;99.90
10472;DHT22;5283;48.876;8.962;2023-08-08T15:20:42;21.30;99.90
10472;DHT22;5283;48.876;8.962;2023-08-08T15:23:09;21.10;99.90
10472;DHT22;5283;48.876;8.962;2023-08-08T15:25:43;21.00;99.90
10472;DHT22;5283;48.876;8.962;2023-08-08T15:28:10;21.00;99.90
10472;DHT22;5283;48.876;8.962;2023-08-08T15:30:38;21.10;99.90
10472;DHT22;5283;48.876;8.962;2023-08-08T15:33:04;21.10;99.90
10472;DHT22;5283;48.876;8.962;2023-08-08T15:35:34;21.10;99.90
10472;DHT22;5283;48.876;8.962;2023-08-08T15:38:02;21.30;99.90
10472;DHT22;5283;48.876;8.962;2023-08-08T15:40:31;21.20;99.90
10472;DHT22;5283;48.876;8.962;2023-08-08T15:42:58;21.10;99.90
10472;DHT22;5283;48.876;8.962;2023-08-08T15:45:26;21.30;99.90
10472;DHT22;5283;48.876;8.962;2023-08-08T15:47:53;21.30;99.90
10472;DHT22;5283;48.876;8.962;2023-08-08T15:50:21;21.10;99.90
10472;DHT22;5283;48.876;8.962;2023-08-08T15:52:48;21.30;99.90
10472;DHT22;5283;48.876;8.962;2023-08-08T15:55:15;21.40;99.90
10472;DHT22;5283;48.876;8.962;2023-08-08T15:57:41;21.30;99.90
10472;DHT22;5283;48.876;8.962;2023-08-08T16:00:09;21.40;99.90
10472;DHT22;5283;48.876;8.962;2023-08-08T16:02:37;21.50;99.90
10472;DHT22;5283;48.876;8.962;2023-08-08T16:05:05;21.20;99.90